Home > Products > Valid Products > MTR

000
SAUS44 KLZK 181346
MTRMWT
SPECI KMWT 181345Z AUTO 00000KT 6SM BR BKN010 OVC019 23/21 A2996 RMK
AO2 T02280211





000
SAUS44 KLZK 181329
MTRMWT
SPECI KMWT 181328Z AUTO 00000KT 3SM BR FEW008 BKN020 22/21 A2995 RMK
AO2 PRESRR T02220211





000
SAUS44 KLZK 181310
MTRMWT
SPECI KMWT 181309Z AUTO 00000KT 3SM BR SCT008 22/21 A2993 RMK AO2
T02220211 $





000
SAUS44 KLZK 181257 COR
MTRMWT
METAR KMWT 181253Z AUTO 00000KT 1 3/4SM BR FEW008 22/21 A2993 RMK
AO2 SLP126 T02170211 $





000
SAUS44 KLZK 181217
MTRMWT
SPECI KMWT 181215Z AUTO 00000KT 1 1/2SM BR CLR 22/21 A2991 RMK AO2
T02170206 $





000
SAUS44 KLZK 181201
MTRMWT
SPECI KMWT 181200Z AUTO 00000KT 2SM BR CLR 22/21 A2990 RMK AO2
T02170206 $





000
SAUS44 KLZK 181154
MTRMWT
METAR KMWT 181153Z AUTO 00000KT 1 3/4SM BR CLR 22/21 A2990 RMK AO2
SLP114 T02170206 10244 20217 51010 $





000
SAUS44 KLZK 181134
MTRMWT
SPECI KMWT 181133Z AUTO 00000KT 2SM BR CLR 22/21 A2989 RMK AO2
T02170211 $





000
SAUS44 KLZK 181054
MTRMWT
METAR KMWT 181053Z AUTO 00000KT 4SM BR CLR 22/21 A2988 RMK AO2
SLP108 T02220211 $





000
SAUS44 KLZK 180954
MTRMWT
METAR KMWT 180953Z AUTO 00000KT 4SM BR CLR 22/22 A2987 RMK AO2
SLP102 T02220217





000
SAUS44 KLZK 180854
MTRMWT
METAR KMWT 180853Z AUTO 00000KT 7SM CLR 23/21 A2986 RMK AO2 SLP098
T02280211 58007





000
SAUS44 KLZK 180754
MTRMWT
METAR KMWT 180753Z AUTO 15003KT 7SM CLR 23/22 A2988 RMK AO2 SLP104
T02330217





000
SAUS44 KLZK 180657 COR
MTRMWT
METAR KMWT 180653Z AUTO 06004KT 9SM FEW026 SCT040 SCT120 24/22 A2990
RMK AO2 SLP111 T02440217





000
SAUS44 KLZK 180554
MTRMWT
METAR KMWT 180553Z AUTO VRB03KT 10SM CLR 24/22 A2988 RMK AO2 PRESFR
SLP105 T02440217 10261 20228 403000178 58018





000
SAUS44 KLZK 180454
MTRMWT
METAR KMWT 180453Z AUTO VRB03KT 8SM CLR 23/22 A2990 RMK AO2 SLP115
T02330217





000
SAUS44 KLZK 180354
MTRMWT
METAR KMWT 180353Z AUTO 33003KT 9SM CLR 23/22 A2992 RMK AO2 SLP123
T02330217





000
SAUS44 KLZK 180254
MTRMWT
METAR KMWT 180253Z AUTO 00000KT 6SM BR CLR 23/22 A2993 RMK AO2
SLP127 T02330217 51010





000
SAUS44 KLZK 180154
MTRMWT
METAR KMWT 180153Z AUTO VRB03KT 10SM CLR 24/22 A2993 RMK AO2 PRESRR
SLP126 T02440217





000
SAUS44 KLZK 180057 COR
MTRMWT
METAR KMWT 180053Z AUTO 00000KT 9SM FEW034 FEW055 25/22 A2991 RMK
AO2 SLP121 T02500222





000
SAUS44 KLZK 172357 COR
MTRMWT
METAR KMWT 172353Z AUTO 00000KT 10SM CLR 26/23 A2990 RMK AO2 SLP116
T02610228 10300 20256 56004





000
SAUS44 KLZK 172255
MTRMWT
METAR KMWT 172253Z AUTO 14003KT 10SM FEW035 27/22 A2991 RMK AO2
SLP117 T02720222





000
SAUS44 KLZK 172154
MTRMWT
METAR KMWT 172153Z AUTO VRB03KT 10SM CLR 30/21 A2990 RMK AO2 SLP115
T03000211





000
SAUS44 KLZK 172054
MTRMWT
METAR KMWT 172053Z AUTO 00000KT 10SM SCT040 BKN080 29/22 A2991 RMK
AO2 SLP118 T02940217 58011





000
SAUS44 KLZK 171954
MTRMWT
METAR KMWT 171953Z AUTO 00000KT 10SM SCT032 BKN047 OVC070 28/22
A2993 RMK AO2 SLP125 T02830217





000
SAUS44 KLZK 171909
MTRMWT
SPECI KMWT 171908Z AUTO 00000KT 10SM FEW026 BKN032 BKN042 29/22
A2994 RMK AO2 T02890217





000
SAUS44 KLZK 171902
MTRMWT
SPECI KMWT 171901Z AUTO 00000KT 10SM BKN029 BKN037 29/21 A2994 RMK
AO2 T02890211





000
SAUS44 KLZK 171854
MTRMWT
METAR KMWT 171853Z AUTO 00000KT 10SM SCT027 BKN033 28/21 A2995 RMK
AO2 SLP129 T02830211





000
SAUS44 KLZK 171840
MTRMWT
SPECI KMWT 171838Z AUTO 00000KT 10SM BKN027 29/21 A2995 RMK AO2
T02890211





000
SAUS44 KLZK 171807
MTRMWT
SPECI KMWT 171806Z AUTO 00000KT 10SM SCT028 28/21 A2996 RMK AO2
T02830211





000
SAUS44 KLZK 171754
MTRMWT
METAR KMWT 171753Z AUTO VRB03KT 10SM BKN026 28/21 A2996 RMK AO2
SLP135 T02830211 10283 20178 58013





000
SAUS44 KLZK 171734
MTRMWT
SPECI KMWT 171732Z AUTO VRB03KT 10SM BKN022 28/21 A2997 RMK AO2
T02780211





000
SAUS44 KLZK 171654
MTRMWT
METAR KMWT 171653Z AUTO 00000KT 10SM CLR 26/21 A2998 RMK AO2 SLP141
T02610206





000
SAUS44 KLZK 171623
MTRMWT
SPECI KMWT 171622Z AUTO 00000KT 10SM SCT013 25/20 A2999 RMK AO2
T02500200





000
SAUS44 KLZK 171554
MTRMWT
METAR KMWT 171553Z AUTO 00000KT 8SM OVC010 23/19 A3001 RMK AO2
SLP151 T02330194





000
SAUS44 KLZK 171547
MTRMWT
SPECI KMWT 171545Z AUTO 00000KT 8SM OVC010 23/20 A3000 RMK AO2
T02280200





000
SAUS44 KLZK 171455
MTRMWT
METAR KMWT 171453Z AUTO 00000KT 5SM BR SCT005 OVC009 21/19 A3000 RMK
AO2 SLP151 T02110189





000
SAUS44 KLZK 171451
MTRMWT
SPECI KMWT 171449Z AUTO 00000KT 5SM BR BKN005 OVC009 21/19 A3000 RMK
AO2 CIG 003V008





000
SAUS44 KLZK 171439
MTRMWT
SPECI KMWT 171438Z AUTO 00000KT 4SM BR OVC003 20/19 A3001 RMK AO2
CIG 002V006 T02000189





000
SAUS44 KLZK 171432
MTRMWT
SPECI KMWT 171431Z AUTO 00000KT 2 1/2SM BR OVC003 20/19 A3000 RMK
AO2 T02000189





000
SAUS44 KLZK 171355
MTRMWT
METAR KMWT 171353Z AUTO 00000KT 1SM BR OVC003 19/19 A3000 RMK AO2
SLP149 T01940189





000
SAUS44 KLZK 171348
MTRMWT
SPECI KMWT 171346Z AUTO 00000KT 1 3/4SM BR OVC003 19/19 A3000 RMK
AO2 T01940189 $





000
SAUS44 KLZK 171341
MTRMWT
SPECI KMWT 171339Z AUTO 00000KT 2SM BR 19/18 A3000 RMK AO2 T01890183
$





000
SAUS44 KLZK 171332
MTRMWT
SPECI KMWT 171331Z AUTO 00000KT 1 3/4SM BR 19/18 A3000 RMK AO2
T01890183 $





000
SAUS44 KLZK 171313
MTRMWT
SPECI KMWT 171311Z AUTO 00000KT 1/2SM FG OVC002 19/18 A3000 RMK AO2
T01890183 $





000
SAUS44 KLZK 171257 COR
MTRMWT
METAR KMWT 171253Z AUTO 00000KT 1SM BR OVC002 19/18 A3000 RMK AO2
SLP149 T01890183 $





000
SAUS44 KLZK 171252
MTRMWT
SPECI KMWT 171250Z AUTO 00000KT 3/4SM BR OVC002 19/18 A3000 RMK AO2
$





000
SAUS44 KLZK 171209
MTRMWT
SPECI KMWT 171208Z AUTO 00000KT 1 1/4SM BR BKN002 18/18 A2999 RMK
AO2 T01830178 $





000
SAUS44 KLZK 171200
MTRMWT
SPECI KMWT 171159Z AUTO 00000KT 2SM BR BKN002 BKN014 18/17 A2999 RMK
AO2 T01780172 $





000
SAUS44 KLZK 171154
MTRMWT
METAR KMWT 171153Z AUTO 00000KT 1 3/4SM BR SCT002 BKN014 18/17 A2999
RMK AO2 SLP147 T01780172 10206 20178 50001 $





000
SAUS44 KLZK 171151
MTRMWT
SPECI KMWT 171149Z AUTO 00000KT 2SM BR SCT004 BKN014 18/17 A2999 RMK
AO2 $





000
SAUS44 KLZK 171142
MTRMWT
SPECI KMWT 171141Z AUTO 00000KT 1 3/4SM BR SCT004 BKN010 OVC014
18/17 A2999 RMK AO2 T01780172 $





000
SAUS44 KLZK 171130
MTRMWT
SPECI KMWT 171128Z AUTO 00000KT 1SM BR BKN004 OVC009 18/17 A2999 RMK
AO2 T01780172 $





000
SAUS44 KLZK 171126
MTRMWT
SPECI KMWT 171124Z AUTO 00000KT 3/4SM BR VV007 18/17 A2999 RMK AO2
T01780172 $





000
SAUS44 KLZK 171114
MTRMWT
SPECI KMWT 171113Z AUTO 00000KT 1/4SM FG VV007 18/17 A2999 RMK AO2
T01780172 $





000
SAUS44 KLZK 171054
MTRMWT
METAR KMWT 171053Z AUTO 00000KT 1/4SM FG VV003 18/17 A2999 RMK AO2
SLP143 T01830172 $





000
SAUS44 KLZK 171043
MTRMWT
SPECI KMWT 171041Z AUTO 00000KT 1/2SM FG VV004 18/17 A2999 RMK AO2
T01830172 $





000
SAUS44 KLZK 171038
MTRMWT
SPECI KMWT 171037Z AUTO 00000KT 1SM BR VV006 18/17 A2999 RMK AO2
T01830172 $





000
SAUS44 KLZK 171033
MTRMWT
SPECI KMWT 171032Z AUTO 00000KT 1 1/2SM BR FEW010 18/17 A2999 RMK
AO2 T01830172





000
SAUS44 KLZK 171023
MTRMWT
SPECI KMWT 171022Z AUTO 00000KT 2SM BR CLR 18/17 A2999 RMK AO2
T01830172





000
SAUS44 KLZK 171002
MTRMWT
SPECI KMWT 171001Z AUTO 00000KT 1 1/4SM BR FEW006 18/18 A2999 RMK
AO2 T01830178





000
SAUS44 KLZK 170954
MTRMWT
METAR KMWT 170953Z AUTO 00000KT 1/2SM FG VV006 18/18 A2999 RMK AO2
SLP146 T01830178





000
SAUS44 KLZK 170945
MTRMWT
SPECI KMWT 170944Z AUTO 00000KT 3/4SM BR VV006 19/18 A3000 RMK AO2
T01890178





000
SAUS44 KLZK 170932
MTRMWT
SPECI KMWT 170931Z AUTO 00000KT 1 1/4SM BR SCT005 19/18 A3000 RMK
AO2 T01890178





000
SAUS44 KLZK 170924
MTRMWT
SPECI KMWT 170922Z AUTO 00000KT 1/2SM FG VV005 19/18 A3000 RMK AO2
T01890178





000
SAUS44 KLZK 170915
MTRMWT
SPECI KMWT 170914Z AUTO 00000KT 1/2SM FG VV004 19/18 A3001 RMK AO2
T01890183





000
SAUS44 KLZK 170910
MTRMWT
SPECI KMWT 170909Z AUTO 00000KT 1SM BR VV005 19/18 A3001 RMK AO2 VIS
1/2V3 T01890183





000
SAUS44 KLZK 170854
MTRMWT
METAR KMWT 170853Z AUTO 00000KT 1 3/4SM BR CLR 19/18 A3001 RMK AO2
SLP151 T01940183 58011





000
SAUS44 KLZK 170838
MTRMWT
SPECI KMWT 170837Z AUTO 00000KT 1 1/2SM BR CLR 19/18 A3001 RMK AO2
T01940183





000
SAUS44 KLZK 170831
MTRMWT
SPECI KMWT 170830Z AUTO 00000KT 2SM BR CLR 19/18 A3002 RMK AO2
T01940183





000
SAUS44 KLZK 170818
MTRMWT
SPECI KMWT 170817Z AUTO 00000KT 1 1/2SM BR CLR 19/18 A3002 RMK AO2
T01940183





000
SAUS44 KLZK 170808
MTRMWT
SPECI KMWT 170807Z AUTO 00000KT 2 1/2SM BR CLR 19/18 A3002 RMK AO2
T01940183





000
SAUS44 KLZK 170754
MTRMWT
METAR KMWT 170753Z AUTO 00000KT 1 3/4SM BR CLR 20/19 A3002 RMK AO2
SLP154 T02000189





000
SAUS44 KLZK 170737
MTRMWT
SPECI KMWT 170736Z AUTO 00000KT 2SM BR CLR 20/19 A3003 RMK AO2
T02000189





000
SAUS44 KLZK 170654
MTRMWT
METAR KMWT 170653Z AUTO 00000KT 5SM BR CLR 21/19 A3003 RMK AO2
SLP157 T02060194





000
SAUS44 KLZK 170635
MTRMWT
SPECI KMWT 170633Z AUTO 00000KT 6SM BR SCT009 21/19 A3003 RMK AO2
T02110194





000
SAUS44 KLZK 170555
MTRMWT
METAR KMWT 170553Z AUTO 00000KT 9SM BKN008 22/19 A3004 RMK AO2
SLP161 T02170194 10261 20217 403170194 58000





000
SAUS44 KLZK 170545
MTRMWT
SPECI KMWT 170543Z AUTO 14004KT 8SM BKN008 22/19 A3004 RMK AO2
T02170194





000
SAUS44 KLZK 170536
MTRMWT
SPECI KMWT 170535Z AUTO 14004KT 8SM SCT008 BKN011 22/20 A3005 RMK
AO2 T02170200





000
SAUS44 KLZK 170531 COR
MTRMWT
SPECI KMWT 170528Z AUTO 12003KT 8SM SCT011 22/20 A3005 RMK AO2
T02170200





000
SAUS44 KLZK 170506
MTRMWT
SPECI KMWT 170504Z AUTO VRB03KT 6SM BR OVC010 23/21 A3005 RMK AO2
CIG 008V013 T02280206





000
SAUS44 KLZK 170454
MTRMWT
METAR KMWT 170453Z AUTO 00000KT 6SM BR OVC009 22/21 A3005 RMK AO2
SLP162 T02220206





000
SAUS44 KLZK 170414
MTRMWT
SPECI KMWT 170413Z AUTO 00000KT 10SM OVC009 22/21 A3005 RMK AO2
T02220206





000
SAUS44 KLZK 170355
MTRMWT
METAR KMWT 170353Z AUTO 00000KT 10SM BKN011 22/20 A3005 RMK AO2
SLP165 T02170200





000
SAUS44 KLZK 170339
MTRMWT
SPECI KMWT 170338Z AUTO 00000KT 10SM BKN011 22/20 A3005 RMK AO2
T02170200





000
SAUS44 KLZK 170337
MTRMWT
SPECI KMWT 170335Z AUTO 00000KT 10SM SCT014 22/20 A3005 RMK AO2
T02170200





000
SAUS44 KLZK 170254
MTRMWT
METAR KMWT 170253Z AUTO 00000KT 10SM BKN015 BKN039 23/19 A3004 RMK
AO2 SLP162 T02280194 53012





000
SAUS44 KLZK 170154
MTRMWT
METAR KMWT 170153Z AUTO 07003KT 10SM CLR 23/20 A3003 RMK AO2 SLP159
T02330200





000
SAUS44 KLZK 170054
MTRMWT
METAR KMWT 170053Z AUTO VRB04KT 10SM SCT043 25/22 A3001 RMK AO2
SLP151 T02500217





000
SAUS44 KLZK 162354
MTRMWT
METAR KMWT 162353Z AUTO 00000KT 10SM CLR 27/22 A3001 RMK AO2 SLP151
T02670217 10317 20267 56007





000
SAUS44 KLZK 162254
MTRMWT
METAR KMWT 162253Z AUTO 00000KT 10SM CLR 29/21 A3001 RMK AO2 SLP150
T02890211





000
SAUS44 KLZK 162154
MTRMWT
METAR KMWT 162153Z AUTO 00000KT 10SM CLR 31/21 A3001 RMK AO2 SLP150
T03060206





000
SAUS44 KLZK 162054
MTRMWT
METAR KMWT 162053Z AUTO 00000KT 10SM FEW043 SCT070 BKN095 29/21
A3003 RMK AO2 SLP156 T02890206 56020





000
SAUS44 KLZK 161954
MTRMWT
METAR KMWT 161953Z AUTO VRB03KT 10SM FEW065 31/20 A3004 RMK AO2
SLP161 T03060200





000
SAUS44 KLZK 161855
MTRMWT
METAR KMWT 161853Z AUTO 00000KT 10SM FEW038 SCT049 31/20 A3007 RMK
AO2 SLP169 T03110200





000
SAUS44 KLZK 161755
MTRMWT
METAR KMWT 161753Z AUTO 00000KT 10SM BKN031 29/21 A3009 RMK AO2
SLP177 T02940206 10300 20194 58013





000
SAUS44 KLZK 161722
MTRMWT
SPECI KMWT 161721Z AUTO VRB03KT 10SM SCT030 29/21 A3010 RMK AO2
T02940206





000
SAUS44 KLZK 161708
MTRMWT
SPECI KMWT 161707Z AUTO VRB04KT 10SM BKN028 29/21 A3010 RMK AO2
T02890206





000
SAUS44 KLZK 161654
MTRMWT
METAR KMWT 161653Z AUTO 00000KT 10SM SCT028 28/20 A3010 RMK AO2
SLP183 T02830200





000
SAUS44 KLZK 161554
MTRMWT
METAR KMWT 161553Z AUTO 29003KT 10SM SCT021 27/21 A3012 RMK AO2
SLP190 T02670206





000
SAUS44 KLZK 161454
MTRMWT
METAR KMWT 161453Z AUTO 00000KT 10SM CLR 26/20 A3013 RMK AO2 SLP193
T02560200 50000





000
SAUS44 KLZK 161354
MTRMWT
METAR KMWT 161353Z AUTO 00000KT 10SM CLR 23/21 A3013 RMK AO2 SLP194
T02280206





000
SAUS44 KLZK 161256 COR
MTRMWT
METAR KMWT 161253Z AUTO 00000KT 4SM BR FEW002 21/19 A3013 RMK AO2
SLP195 T02060194





000
SAUS44 KLZK 161250
MTRMWT
SPECI KMWT 161249Z AUTO 00000KT 4SM BR FEW002 20/19 A3013 RMK AO2





000
SAUS44 KLZK 161240
MTRMWT
SPECI KMWT 161239Z AUTO 00000KT 2SM BR SCT002 20/19 A3013 RMK AO2
T02000189





000
SAUS44 KLZK 161238
MTRMWT
SPECI KMWT 161237Z AUTO 00000KT 1SM BR VV002 19/19 A3013 RMK AO2
T01940189





000
SAUS44 KLZK 161216
MTRMWT
SPECI KMWT 161215Z AUTO 00000KT 1/4SM FG VV002 19/19 A3012 RMK AO2
T01940189





000
SAUS44 KLZK 161209
MTRMWT
SPECI KMWT 161208Z AUTO 00000KT 1/2SM FG VV002 19/19 A3012 RMK AO2
T01940189





000
SAUS44 KLZK 161154
MTRMWT
METAR KMWT 161153Z AUTO 00000KT 1SM BR VV002 20/19 A3013 RMK AO2
SLP193 T02000189 10211 20200 53003





000
SAUS44 KLZK 161121
MTRMWT
SPECI KMWT 161120Z AUTO 00000KT 1 3/4SM BR BKN100 20/19 A3012 RMK
AO2 T02000194





000
SAUS44 KLZK 161054
MTRMWT
METAR KMWT 161053Z AUTO 00000KT 4SM BR OVC095 21/19 A3012 RMK AO2
SLP190 T02060194





000
SAUS44 KLZK 160954
MTRMWT
METAR KMWT 160953Z AUTO 00000KT 3SM BR SCT095 21/19 A3011 RMK AO2
SLP187 T02060194





000
SAUS44 KLZK 160854
MTRMWT
METAR KMWT 160853Z AUTO 00000KT 5SM BR OVC100 21/20 A3012 RMK AO2
SLP188 T02060200 56003





000
SAUS44 KLZK 160754
MTRMWT
METAR KMWT 160753Z AUTO 00000KT 4SM BR BKN100 21/20 A3012 RMK AO2
SLP190 T02060200





000
SAUS44 KLZK 160657 COR
MTRMWT
METAR KMWT 160653Z AUTO 00000KT 4SM BR BKN100 BKN120 21/20 A3012 RMK
AO2 SLP190 T02110200





000
SAUS44 KLZK 160556 COR
MTRMWT
METAR KMWT 160553Z AUTO 00000KT 7SM OVC100 21/20 A3012 RMK AO2
SLP192 T02110200 10228 20211 402500167 58006





000
SAUS44 KLZK 160454
MTRMWT
METAR KMWT 160453Z AUTO 00000KT 7SM OVC090 21/20 A3014 RMK AO2
SLP198 T02110200





000
SAUS44 KLZK 160354
MTRMWT
METAR KMWT 160353Z AUTO 00000KT 6SM BR OVC100 21/20 A3015 RMK AO2
SLP201 T02110200





000
SAUS44 KLZK 160254
MTRMWT
METAR KMWT 160253Z AUTO 00000KT 7SM SCT100 OVC120 21/20 A3014 RMK
AO2 SLP199 T02110200 53010





000
SAUS44 KLZK 160154
MTRMWT
METAR KMWT 160153Z AUTO 00000KT 9SM BKN120 22/20 A3012 RMK AO2
SLP192 T02170200





000
SAUS44 KLZK 160054
MTRMWT
METAR KMWT 160053Z AUTO 00000KT 10SM CLR 22/20 A3011 RMK AO2 SLP191
T02170200





000
SAUS44 KLZK 152354
MTRMWT
METAR KMWT 152353Z AUTO 00000KT 10SM SCT120 23/21 A3011 RMK AO2
SLP189 T02280206 10250 20228 56004





000
SAUS44 KLZK 152254
MTRMWT
METAR KMWT 152253Z AUTO 00000KT 10SM SCT120 24/19 A3011 RMK AO2
SLP190 T02390194





000
SAUS44 KLZK 152154
MTRMWT
METAR KMWT 152153Z AUTO 31003KT 10SM SCT120 24/19 A3012 RMK AO2
SLP191 T02440194





000
SAUS44 KLZK 152054
MTRMWT
METAR KMWT 152053Z AUTO 00000KT 10SM CLR 24/18 A3012 RMK AO2 SLP193
T02440183 58011





000
SAUS44 KLZK 151954
MTRMWT
METAR KMWT 151953Z AUTO 00000KT 10SM FEW100 FEW120 24/18 A3013 RMK
AO2 SLP197 T02390183





000
SAUS44 KLZK 151854
MTRMWT
METAR KMWT 151853Z AUTO 00000KT 10SM CLR 24/19 A3015 RMK AO2 SLP201
T02390189





000
SAUS44 KLZK 151754
MTRMWT
METAR KMWT 151753Z AUTO 00000KT 10SM FEW100 23/18 A3016 RMK AO2
SLP204 60000 T02330183 10233 20167 58008





000
SAUS44 KLZK 151654
MTRMWT
METAR KMWT 151653Z AUTO 00000KT 10SM CLR 22/17 A3016 RMK AO2 SLP207
T02170172





000
SAUS44 KLZK 151554
MTRMWT
METAR KMWT 151553Z AUTO 31003KT 10SM CLR 22/18 A3018 RMK AO2 RAE06
SLP213 P0000 T02170178





000
SAUS44 KLZK 151454
MTRMWT
METAR KMWT 151453Z AUTO 00000KT 10SM -RA SCT095 BKN120 19/17 A3018
RMK AO2 RAB53 SLP213 P0000 60000 T01940172 50006





    US Dept of Commerce
    National Oceanic and Atmospheric Administration
    National Weather Service
    1325 East West Highway
    Silver Spring, MD 20910
    Page Author: NWS Internet Services Team
Disclaimer
Information Quality
Credits
Glossary
Privacy Policy
Freedom of Information Act (FOIA)
About Us
Career Opportunities